createdAt,value
2023-11-12T00:02:17.384Z,98092.03
2023-11-12T00:04:45.206Z,98086.97
2023-11-12T00:07:11.659Z,98090.75
2023-11-12T00:09:40.211Z,98099.81
2023-11-12T00:12:08.103Z,98093.34
2023-11-12T00:14:34.595Z,98092.34
2023-11-12T00:17:01.100Z,98093.81
2023-11-12T00:19:27.656Z,98099.69
2023-11-12T00:21:55.473Z,98100.47
2023-11-12T00:24:21.916Z,98088.97
2023-11-12T00:26:48.332Z,98089.66
2023-11-12T00:29:14.856Z,98086.31
2023-11-12T00:31:41.410Z,98075.75
2023-11-12T00:34:07.992Z,98089.69
2023-11-12T00:36:34.559Z,98096.31
2023-11-12T00:39:02.398Z,98086.53
2023-11-12T00:41:28.829Z,98079.25
2023-11-12T00:43:55.335Z,98086.72
2023-11-12T00:46:21.917Z,98072.94
2023-11-12T00:48:48.499Z,98077.22
2023-11-12T00:51:14.988Z,98075.19
2023-11-12T00:53:41.658Z,98084.22
2023-11-12T00:56:09.556Z,98079.81
2023-11-12T00:58:36.037Z,98073.50
2023-11-12T01:01:02.490Z,98073.66
2023-11-12T01:03:29.027Z,98083.81
2023-11-12T01:05:55.492Z,98074.31
2023-11-12T01:08:22.072Z,98078.91
2023-11-12T01:10:48.862Z,98080.50
2023-11-12T01:13:16.808Z,98078.28
2023-11-12T01:15:43.297Z,98077.81
2023-11-12T01:18:09.972Z,98083.19
2023-11-12T01:20:36.491Z,98080.81
2023-11-12T01:23:03.022Z,98087.78
2023-11-12T01:25:29.650Z,98081.28
2023-11-12T01:27:56.091Z,98082.38
2023-11-12T01:30:23.925Z,98077.19
2023-11-12T01:32:50.436Z,98071.78
2023-11-12T01:35:17.036Z,98072.09
2023-11-12T01:37:43.477Z,98071.63
2023-11-12T01:40:11.879Z,98062.75
2023-11-12T01:42:38.333Z,98066.22
2023-11-12T01:45:05.801Z,98056.25
2023-11-12T01:47:34.040Z,98058.50
2023-11-12T01:50:00.675Z,98061.63
2023-11-12T01:52:27.183Z,98062.44
2023-11-12T01:54:54.099Z,98054.84
2023-11-12T01:57:20.612Z,98047.06
2023-11-12T01:59:47.620Z,98052.75
2023-11-12T02:02:14.330Z,98049.13
2023-11-12T02:04:42.693Z,98049.75
2023-11-12T02:07:09.129Z,98038.16
2023-11-12T02:09:35.723Z,98047.31
2023-11-12T02:12:02.295Z,98045.09
2023-11-12T02:14:28.951Z,98041.75
2023-11-12T02:16:55.395Z,98046.16
2023-11-12T02:19:25.312Z,98036.50
2023-11-12T02:21:53.142Z,98035.22
2023-11-12T02:24:20.977Z,98036.78
2023-11-12T02:26:48.323Z,98034.88
2023-11-12T02:29:15.006Z,98032.81
2023-11-12T02:31:41.423Z,98037.22
2023-11-12T02:34:07.918Z,98037.84
2023-11-12T02:36:34.506Z,98034.63
2023-11-12T02:39:01.063Z,98034.16
2023-11-12T02:41:28.893Z,98042.22
2023-11-12T02:43:55.494Z,98047.13
2023-11-12T02:46:22.057Z,98045.72
2023-11-12T02:49:09.123Z,98049.66
2023-11-12T02:51:35.804Z,98040.97
2023-11-12T02:54:02.267Z,98052.88
2023-11-12T02:56:30.070Z,98054.66
2023-11-12T02:58:56.508Z,98055.28
2023-11-12T03:01:23.475Z,98048.59
2023-11-12T03:03:50.054Z,98054.13
2023-11-12T03:06:16.590Z,98067.59
2023-11-12T03:08:43.039Z,98070.75
2023-11-12T03:11:09.548Z,98073.91
2023-11-12T03:13:37.323Z,98083.88
2023-11-12T03:16:04.205Z,98077.53
2023-11-12T03:18:30.791Z,98084.53
2023-11-12T03:20:57.257Z,98082.00
2023-11-12T03:23:23.689Z,98080.72
2023-11-12T03:25:50.142Z,98080.44
2023-11-12T03:28:16.629Z,98081.38
2023-11-12T03:30:44.694Z,98078.38
2023-11-12T03:33:11.346Z,98080.78
2023-11-12T03:35:37.879Z,98082.38
2023-11-12T03:38:04.390Z,98085.53
2023-11-12T03:40:30.825Z,98084.72
2023-11-12T03:42:57.261Z,98085.22
2023-11-12T03:45:23.862Z,98074.16
2023-11-12T03:47:51.658Z,98067.97
2023-11-12T03:50:18.191Z,98073.19
2023-11-12T03:52:44.749Z,98068.41
2023-11-12T03:55:11.223Z,98066.03
2023-11-12T03:57:37.801Z,98079.47
2023-11-12T04:00:05.419Z,98065.53
2023-11-12T04:02:31.941Z,98074.41
2023-11-12T04:05:00.040Z,98077.28
2023-11-12T04:07:26.600Z,98075.09
2023-11-12T04:09:53.003Z,98072.56
2023-11-12T04:12:19.647Z,98071.75
2023-11-12T04:14:46.114Z,98071.47
2023-11-12T04:17:12.535Z,98064.97
2023-11-12T04:19:38.958Z,98072.09
2023-11-12T04:22:06.827Z,98071.78
2023-11-12T04:24:33.406Z,98072.28
2023-11-12T04:26:59.851Z,98074.38
2023-11-12T04:29:26.335Z,98074.06
2023-11-12T04:31:52.904Z,98066.28
2023-11-12T04:34:19.491Z,98055.03
2023-11-12T04:36:45.913Z,98058.53
2023-11-12T04:39:13.702Z,98055.84
2023-11-12T04:41:40.143Z,98063.13
2023-11-12T04:44:06.770Z,98070.38
2023-11-12T04:46:33.360Z,98070.09
2023-11-12T04:48:59.796Z,98057.13
2023-11-12T04:51:26.281Z,98069.78
2023-11-12T04:53:52.814Z,98063.75
2023-11-12T04:56:20.608Z,98060.28
2023-11-12T04:58:47.064Z,98064.84
2023-11-12T05:01:13.676Z,98065.84
2023-11-12T05:03:40.440Z,98069.31
2023-11-12T05:06:07.429Z,98072.81
2023-11-12T05:08:33.933Z,98068.22
2023-11-12T05:11:00.465Z,98066.31
2023-11-12T05:13:28.296Z,98062.03
2023-11-12T05:15:56.872Z,98076.78
2023-11-12T05:18:23.366Z,98069.50
2023-11-12T05:20:49.858Z,98077.91
2023-11-12T05:23:16.301Z,98074.56
2023-11-12T05:25:42.782Z,98078.38
2023-11-12T05:28:09.425Z,98066.47
2023-11-12T05:30:37.374Z,98070.31
2023-11-12T05:33:04.058Z,98061.44
2023-11-12T05:35:30.645Z,98060.63
2023-11-12T05:37:57.294Z,98071.88
2023-11-12T05:40:23.814Z,98064.13
2023-11-12T05:42:50.461Z,98077.25
2023-11-12T05:45:17.295Z,98068.38
2023-11-12T05:47:45.125Z,98070.75
2023-11-12T05:50:11.593Z,98073.47
2023-11-12T05:52:38.051Z,98067.75
2023-11-12T05:55:05.396Z,98071.25
2023-11-12T05:57:31.837Z,98074.44
2023-11-12T05:59:58.400Z,98073.63
2023-11-12T06:02:24.844Z,98068.75
2023-11-12T06:04:52.605Z,98074.44
2023-11-12T06:07:19.131Z,98067.94
2023-11-12T06:09:45.749Z,98070.34
2023-11-12T06:12:12.350Z,98071.13
2023-11-12T06:14:38.995Z,98063.81
2023-11-12T06:17:05.426Z,98080.94
2023-11-12T06:19:31.915Z,98073.66
2023-11-12T06:21:59.894Z,98080.66
2023-11-12T06:24:26.378Z,98074.94
2023-11-12T06:26:52.807Z,98079.38
2023-11-12T06:29:19.376Z,98076.38
2023-11-12T06:31:45.879Z,98085.44
2023-11-12T06:34:12.416Z,98075.47
2023-11-12T06:36:38.961Z,98078.63
2023-11-12T06:39:07.009Z,98074.34
2023-11-12T06:41:56.563Z,98080.22
2023-11-12T06:44:23.181Z,98082.91
2023-11-12T06:46:49.708Z,98076.41
2023-11-12T06:49:16.292Z,98076.09
2023-11-12T06:51:43.167Z,98081.19
2023-11-12T06:54:11.008Z,98080.09
2023-11-12T06:56:37.454Z,98092.44
2023-11-12T06:59:04.236Z,98094.19
2023-11-12T07:01:30.683Z,98097.69
2023-11-12T07:03:57.324Z,98097.84
2023-11-12T07:06:23.853Z,98096.41
2023-11-12T07:08:50.309Z,98097.09
2023-11-12T07:11:18.285Z,98102.63
2023-11-12T07:13:45.121Z,98098.50
2023-11-12T07:16:15.742Z,98105.97
2023-11-12T07:18:49.725Z,98103.28
2023-11-12T07:21:25.084Z,98100.75
2023-11-12T07:23:51.633Z,98097.72
2023-11-12T07:26:19.438Z,98099.81
2023-11-12T07:28:45.949Z,98107.59
2023-11-12T07:31:12.532Z,98110.91
2023-11-12T07:33:39.153Z,98110.91
2023-11-12T07:36:06.867Z,98115.69
2023-11-12T07:38:33.627Z,98109.63
2023-11-12T07:41:00.256Z,98106.81
2023-11-12T07:43:28.129Z,98111.09
2023-11-12T07:45:54.628Z,98117.91
2023-11-12T07:48:21.217Z,98123.00
2023-11-12T07:50:47.826Z,98126.50
2023-11-12T07:53:14.370Z,98118.41
2023-11-12T07:55:40.924Z,98128.41
2023-11-12T07:58:07.366Z,98130.91
2023-11-12T08:00:35.213Z,98131.25
2023-11-12T08:03:01.702Z,98126.00
2023-11-12T08:05:28.234Z,98131.72
2023-11-12T08:07:54.734Z,98135.38
2023-11-12T08:10:21.506Z,98139.50
2023-11-12T08:12:48.170Z,98140.28
2023-11-12T08:15:14.827Z,98147.44
2023-11-12T08:17:43.030Z,98147.13
2023-11-12T08:20:10.567Z,98145.53
2023-11-12T08:22:37.497Z,98151.38
2023-11-12T08:25:04.465Z,98147.13
2023-11-12T08:27:30.967Z,98159.16
2023-11-12T08:29:57.526Z,98156.16
2023-11-12T08:32:24.022Z,98154.72
2023-11-12T08:34:51.833Z,98162.03
2023-11-12T08:37:18.597Z,98169.16
2023-11-12T08:39:45.330Z,98171.88
2023-11-12T08:42:11.848Z,98168.06
2023-11-12T08:44:38.562Z,98172.66
2023-11-12T08:47:05.574Z,98165.84
2023-11-12T08:49:32.062Z,98171.53
2023-11-12T08:52:00.702Z,98179.34
2023-11-12T08:54:27.256Z,98189.66
2023-11-12T08:56:54.304Z,98194.13
2023-11-12T08:59:21.190Z,98191.41
2023-11-12T09:01:47.788Z,98189.50
2023-11-12T09:04:14.453Z,98191.09
2023-11-12T09:06:41.133Z,98188.72
2023-11-12T09:09:09.050Z,98196.81
2023-11-12T09:11:35.651Z,98196.31
2023-11-12T09:14:02.132Z,98197.59
2023-11-12T09:16:28.631Z,98201.09
2023-11-12T09:18:55.255Z,98192.81
2023-11-12T09:21:21.778Z,98200.59
2023-11-12T09:23:48.286Z,98203.00
2023-11-12T09:26:20.970Z,98205.69
2023-11-12T09:28:47.456Z,98215.69
2023-11-12T09:31:14.193Z,98206.19
2023-11-12T09:33:40.801Z,98214.59
2023-11-12T09:36:07.754Z,98217.91
2023-11-12T09:38:35.035Z,98214.75
2023-11-12T09:41:01.648Z,98220.78
2023-11-12T09:43:30.541Z,98217.13
2023-11-12T09:45:57.595Z,98221.41
2023-11-12T09:48:30.904Z,98218.72
2023-11-12T09:50:58.393Z,98218.22
2023-11-12T09:53:25.007Z,98213.78
2023-11-12T09:55:51.779Z,98204.41
2023-11-12T09:58:18.510Z,98221.56
2023-11-12T10:00:46.498Z,98209.31
2023-11-12T10:03:13.484Z,98218.03
2023-11-12T10:05:40.203Z,98221.38
2023-11-12T10:08:06.933Z,98217.44
2023-11-12T10:10:34.779Z,98213.13
2023-11-12T10:13:01.774Z,98214.53
2023-11-12T10:15:29.517Z,98219.34
2023-11-12T10:18:01.025Z,98223.94
2023-11-12T10:20:30.190Z,98219.78
2023-11-12T10:22:57.201Z,98217.25
2023-11-12T10:25:38.254Z,98211.19
2023-11-12T10:28:07.137Z,98208.91
2023-11-12T10:30:33.712Z,98211.44
2023-11-12T10:33:15.299Z,98205.19
2023-11-12T10:35:41.899Z,98205.75
2023-11-12T10:38:08.499Z,98203.50
2023-11-12T10:40:35.070Z,98196.31
2023-11-12T10:43:07.481Z,98202.16
2023-11-12T10:45:34.797Z,98202.44
2023-11-12T10:48:04.205Z,98198.97
2023-11-12T10:50:32.516Z,98204.91
2023-11-12T10:53:00.087Z,98204.94
2023-11-12T10:55:26.785Z,98204.63
2023-11-12T10:57:56.421Z,98214.59
2023-11-12T11:00:23.173Z,98217.28
2023-11-12T11:02:50.094Z,98211.88
2023-11-12T11:05:17.260Z,98209.13
2023-11-12T11:07:45.446Z,98197.69
2023-11-12T11:10:12.231Z,98201.69
2023-11-12T11:12:39.145Z,98190.91
2023-11-12T11:15:38.437Z,98187.47
2023-11-12T11:18:05.234Z,98188.25
2023-11-12T11:21:16.912Z,98200.03
2023-11-12T11:23:46.304Z,98200.06
2023-11-12T11:26:26.902Z,98195.50
2023-11-12T11:29:17.754Z,98206.47
2023-11-12T11:32:17.463Z,98195.09
2023-11-12T11:34:45.318Z,98200.00
2023-11-12T11:37:11.993Z,98200.63
2023-11-12T11:39:39.808Z,98209.72
2023-11-12T11:42:14.056Z,98213.09
2023-11-12T11:44:44.777Z,98210.13
2023-11-12T11:47:12.666Z,98213.25
2023-11-12T11:49:39.286Z,98204.50
2023-11-12T11:52:05.846Z,98200.25
2023-11-12T11:54:32.745Z,98200.22
2023-11-12T11:57:01.552Z,98191.53
2023-11-12T11:59:30.114Z,98191.38
2023-11-12T12:01:59.601Z,98196.94
2023-11-12T12:04:26.681Z,98188.84
2023-11-12T12:06:53.230Z,98186.78
2023-11-12T12:09:20.306Z,98193.31
2023-11-12T12:11:47.954Z,98186.81
2023-11-12T12:14:16.188Z,98183.94
2023-11-12T12:16:45.317Z,98192.81
2023-11-12T12:19:16.024Z,98182.31
2023-11-12T12:21:46.582Z,98176.88
2023-11-12T12:24:13.388Z,98175.63
2023-11-12T12:26:40.161Z,98180.72
2023-11-12T12:29:16.224Z,98183.25
2023-11-12T12:31:42.950Z,98171.50
2023-11-12T12:34:11.073Z,98174.81
2023-11-12T12:36:38.017Z,98182.31
2023-11-12T12:39:05.932Z,98181.81
2023-11-12T12:41:32.524Z,98192.91
2023-11-12T12:43:58.979Z,98193.25
2023-11-12T12:46:42.642Z,98193.44
2023-11-12T12:49:09.141Z,98189.41
2023-11-12T12:51:38.081Z,98199.94
2023-11-12T12:54:06.024Z,98195.94
2023-11-12T12:56:32.463Z,98196.44
2023-11-12T12:58:59.005Z,98191.84
2023-11-12T13:01:26.908Z,98189.13
2023-11-12T13:03:53.430Z,98187.69
2023-11-12T13:06:20.004Z,98189.75
2023-11-12T13:08:46.621Z,98189.09
2023-11-12T13:11:13.205Z,98196.41
2023-11-12T13:13:39.632Z,98197.38
2023-11-12T13:16:06.623Z,98203.38
2023-11-12T13:18:34.527Z,98202.75
2023-11-12T13:21:00.999Z,98202.75
2023-11-12T13:23:27.428Z,98196.69
2023-11-12T13:25:53.870Z,98198.63
2023-11-12T13:28:20.650Z,98199.44
2023-11-12T13:30:47.561Z,98209.63
2023-11-12T13:33:14.216Z,98207.72
2023-11-12T13:35:42.101Z,98213.91
2023-11-12T13:38:08.858Z,98211.84
2023-11-12T13:40:35.373Z,98226.16
2023-11-12T13:43:01.882Z,98229.47
2023-11-12T13:45:28.519Z,98229.81
2023-11-12T13:47:55.310Z,98233.78
2023-11-12T13:50:21.937Z,98229.97
2023-11-12T13:52:49.799Z,98229.34
2023-11-12T13:55:16.697Z,98225.34
2023-11-12T13:57:43.237Z,98227.91
2023-11-12T14:00:11.116Z,98229.16
2023-11-12T14:02:37.872Z,98231.88
2023-11-12T14:05:04.878Z,98231.72
2023-11-12T14:07:31.306Z,98229.16
2023-11-12T14:09:59.080Z,98225.19
2023-11-12T14:12:25.575Z,98231.72
2023-11-12T14:14:52.398Z,98228.06
2023-11-12T14:17:19.145Z,98232.06
2023-11-12T14:19:45.604Z,98233.28
2023-11-12T14:22:12.107Z,98232.34
2023-11-12T14:24:38.802Z,98241.09
2023-11-12T14:27:06.930Z,98234.09
2023-11-12T14:29:33.426Z,98242.38
2023-11-12T14:31:59.939Z,98234.41
2023-11-12T14:34:26.517Z,98236.66
2023-11-12T14:36:53.139Z,98234.13
2023-11-12T14:39:19.777Z,98241.91
2023-11-12T14:41:48.165Z,98234.75
2023-11-12T14:44:16.316Z,98240.00
2023-11-12T14:46:42.874Z,98252.72
2023-11-12T14:49:09.393Z,98251.75
2023-11-12T14:51:36.532Z,98244.13
2023-11-12T14:54:05.605Z,98244.44
2023-11-12T14:56:32.837Z,98240.63
2023-11-12T14:58:59.505Z,98251.75
2023-11-12T15:01:27.383Z,98250.63
2023-11-12T15:03:54.326Z,98250.63
2023-11-12T15:06:20.832Z,98248.25
2023-11-12T15:08:47.329Z,98246.34
2023-11-12T15:11:13.900Z,98249.03
2023-11-12T15:13:40.434Z,98242.72
2023-11-12T15:16:07.473Z,98240.31
2023-11-12T15:18:35.281Z,98242.72
2023-11-12T15:21:02.024Z,98245.41
2023-11-12T15:23:30.553Z,98244.91
2023-11-12T15:25:59.236Z,98243.03
2023-11-12T15:28:25.725Z,98249.53
2023-11-12T15:30:52.323Z,98249.84
2023-11-12T15:33:18.842Z,98242.84
2023-11-12T15:35:46.671Z,98242.06
2023-11-12T15:38:13.091Z,98247.78
2023-11-12T15:40:40.526Z,98242.72
2023-11-12T15:43:07.165Z,98247.31
2023-11-12T15:45:33.663Z,98251.44
2023-11-12T15:48:00.263Z,98251.44
2023-11-12T15:50:26.943Z,98249.84
2023-11-12T15:52:55.200Z,98255.22
2023-11-12T15:55:21.885Z,98261.75
2023-11-12T15:57:48.430Z,98265.53
2023-11-12T16:00:16.032Z,98268.25
2023-11-12T16:02:43.399Z,98269.19
2023-11-12T16:05:10.097Z,98278.09
2023-11-12T16:07:36.952Z,98278.59
2023-11-12T16:10:06.161Z,98278.41
2023-11-12T16:12:32.905Z,98268.72
2023-11-12T16:14:59.522Z,98277.44
2023-11-12T16:17:27.974Z,98272.38
2023-11-12T16:19:55.794Z,98273.47
2023-11-12T16:22:22.264Z,98277.28
2023-11-12T16:24:48.785Z,98276.00
2023-11-12T16:27:18.457Z,98272.81
2023-11-12T16:29:46.186Z,98267.28
2023-11-12T16:32:12.724Z,98274.25
2023-11-12T16:34:39.916Z,98275.69
2023-11-12T16:37:07.090Z,98265.19
2023-11-12T16:39:41.803Z,98278.38
2023-11-12T16:42:08.317Z,98273.59
2023-11-12T16:44:36.388Z,98275.50
2023-11-12T16:47:02.978Z,98283.91
2023-11-12T16:49:29.413Z,98279.94
2023-11-12T16:51:55.975Z,98282.66
2023-11-12T16:54:22.471Z,98292.63
2023-11-12T16:56:48.962Z,98291.66
2023-11-12T16:59:15.431Z,98300.56
2023-11-12T17:01:43.416Z,98294.34
2023-11-12T17:04:10.098Z,98292.47
2023-11-12T17:06:36.618Z,98288.47
2023-11-12T17:09:03.240Z,98298.50
2023-11-12T17:11:29.692Z,98296.09
2023-11-12T17:13:56.416Z,98296.56
2023-11-12T17:16:23.391Z,98303.56
2023-11-12T17:18:51.310Z,98304.50
2023-11-12T17:21:18.057Z,98307.03
2023-11-12T17:23:44.530Z,98312.41
2023-11-12T17:26:11.120Z,98312.56
2023-11-12T17:28:37.814Z,98307.94
2023-11-12T17:31:04.693Z,98318.03
2023-11-12T17:33:31.270Z,98316.41
2023-11-12T17:35:59.079Z,98314.16
2023-11-12T17:38:25.628Z,98323.31
2023-11-12T17:40:52.060Z,98328.66
2023-11-12T17:43:18.500Z,98333.19
2023-11-12T17:45:45.188Z,98325.66
2023-11-12T17:48:11.673Z,98323.19
2023-11-12T17:50:38.120Z,98321.75
2023-11-12T17:53:05.984Z,98315.78
2023-11-12T17:55:32.420Z,98311.75
2023-11-12T17:57:58.941Z,98311.38
2023-11-12T18:00:25.406Z,98316.38
2023-11-12T18:02:51.980Z,98305.84
2023-11-12T18:05:18.650Z,98303.06
2023-11-12T18:07:45.169Z,98307.78
2023-11-12T18:10:13.309Z,98305.97
2023-11-12T18:12:40.033Z,98303.72
2023-11-12T18:15:07.792Z,98307.28
2023-11-12T18:17:34.336Z,98309.28
2023-11-12T18:20:00.845Z,98314.78
2023-11-12T18:22:27.274Z,98307.09
2023-11-12T18:24:53.758Z,98309.91
2023-11-12T18:27:21.806Z,98296.88
2023-11-12T18:29:48.309Z,98307.22
2023-11-12T18:32:14.905Z,98307.22
2023-11-12T18:34:44.660Z,98311.91
2023-11-12T18:37:11.136Z,98306.03
2023-11-12T18:39:37.752Z,98317.06
2023-11-12T18:42:04.838Z,98321.47
2023-11-12T18:44:32.671Z,98326.91
2023-11-12T18:46:59.095Z,98327.59
2023-11-12T18:49:25.576Z,98329.88
2023-11-12T18:51:52.335Z,98321.41
2023-11-12T18:54:19.135Z,98320.22
2023-11-12T18:56:45.637Z,98320.28
2023-11-12T18:59:12.800Z,98327.06
2023-11-12T19:01:40.648Z,98335.28
2023-11-12T19:04:07.422Z,98328.09
2023-11-12T19:06:37.446Z,98335.16
2023-11-12T19:09:04.716Z,98342.19
2023-11-12T19:11:31.156Z,98336.31
2023-11-12T19:13:57.851Z,98339.00
2023-11-12T19:16:24.358Z,98345.78
2023-11-12T19:18:52.283Z,98342.06
2023-11-12T19:21:19.019Z,98351.78
2023-11-12T19:23:45.758Z,98350.50
2023-11-12T19:26:12.266Z,98356.94
2023-11-12T19:28:38.694Z,98358.63
2023-11-12T19:31:05.274Z,98363.78
2023-11-12T19:33:31.749Z,98372.69
2023-11-12T19:35:59.517Z,98375.88
2023-11-12T19:38:25.993Z,98385.81
2023-11-12T19:40:52.527Z,98385.03
2023-11-12T19:43:19.112Z,98376.47
2023-11-12T19:45:45.709Z,98392.84
2023-11-12T19:48:12.370Z,98395.84
2023-11-12T19:50:38.966Z,98398.00
2023-11-12T19:53:06.804Z,98404.19
2023-11-12T19:55:33.348Z,98419.19
2023-11-12T19:57:59.835Z,98410.34
2023-11-12T20:00:26.363Z,98418.41
2023-11-12T20:02:53.382Z,98417.88
2023-11-12T20:05:20.218Z,98424.03
2023-11-12T20:07:46.689Z,98422.97
2023-11-12T20:10:14.943Z,98414.91
2023-11-12T20:12:41.452Z,98403.38
2023-11-12T20:15:08.727Z,98391.31
2023-11-12T20:17:35.217Z,98386.25
2023-11-12T20:20:02.011Z,98380.06
2023-11-12T20:22:28.991Z,98366.19
2023-11-12T20:24:55.601Z,98358.13
2023-11-12T20:27:23.949Z,98351.66
2023-11-12T20:29:50.486Z,98347.41
2023-11-12T20:32:17.134Z,98363.78
2023-11-12T20:34:44.698Z,98361.09
2023-11-12T20:37:12.041Z,98360.31
2023-11-12T20:39:38.548Z,98361.91
2023-11-12T20:42:05.535Z,98364.88
2023-11-12T20:44:33.331Z,98363.78
2023-11-12T20:46:59.798Z,98378.28
2023-11-12T20:49:26.351Z,98373.72
2023-11-12T20:51:52.872Z,98369.66
2023-11-12T20:54:19.490Z,98358.13
2023-11-12T20:56:46.436Z,98359.22
2023-11-12T20:59:13.312Z,98374.50
2023-11-12T21:01:41.287Z,98379.38
2023-11-12T21:04:12.220Z,98390.38
2023-11-12T21:06:40.023Z,98399.50
2023-11-12T21:09:06.660Z,98407.63
2023-11-12T21:11:34.470Z,98416.53
2023-11-12T21:14:02.320Z,98426.47
2023-11-12T21:16:28.979Z,98428.94
2023-11-12T21:18:56.833Z,98427.34
2023-11-12T21:21:23.407Z,98423.84
2023-11-12T21:23:50.026Z,98418.50
2023-11-12T21:26:16.620Z,98417.41
2023-11-12T21:28:43.611Z,98420.09
2023-11-12T21:31:10.503Z,98412.31
2023-11-12T21:33:37.278Z,98419.56
2023-11-12T21:36:06.483Z,98418.25
2023-11-12T21:38:33.006Z,98427.69
2023-11-12T21:40:59.526Z,98427.75
2023-11-12T21:43:25.998Z,98424.84
2023-11-12T21:45:52.660Z,98413.16
2023-11-12T21:48:19.190Z,98418.03
2023-11-12T21:50:45.896Z,98418.91
2023-11-12T21:53:13.767Z,98419.25
2023-11-12T21:55:40.232Z,98427.31
2023-11-12T21:58:06.799Z,98420.38
2023-11-12T22:00:34.460Z,98420.44
2023-11-12T22:03:01.023Z,98418.56
2023-11-12T22:05:27.490Z,98424.41
2023-11-12T22:07:54.164Z,98420.97
2023-11-12T22:10:21.986Z,98423.03
2023-11-12T22:12:48.788Z,98424.13
2023-11-12T22:15:15.744Z,98428.41
2023-11-12T22:17:42.626Z,98443.69
2023-11-12T22:20:10.309Z,98452.53
2023-11-12T22:22:36.934Z,98443.94
2023-11-12T22:25:11.501Z,98438.22
2023-11-12T22:27:43.795Z,98431.50
2023-11-12T22:30:11.519Z,98428.47
2023-11-12T22:32:38.193Z,98426.31
2023-11-12T22:35:05.962Z,98439.66
2023-11-12T22:37:32.426Z,98442.28
2023-11-12T22:39:59.001Z,98437.44
2023-11-12T22:42:25.510Z,98429.91
2023-11-12T22:44:53.354Z,98443.53
2023-11-12T22:47:19.851Z,98448.84
2023-11-12T22:49:46.335Z,98455.81
2023-11-12T22:52:13.069Z,98458.72
2023-11-12T22:54:39.819Z,98446.91
2023-11-12T22:57:06.278Z,98443.88
2023-11-12T22:59:32.887Z,98446.00
2023-11-12T23:02:00.824Z,98454.56
2023-11-12T23:04:27.402Z,98466.59
2023-11-12T23:06:53.847Z,98468.47
2023-11-12T23:09:20.504Z,98481.56
2023-11-12T23:11:46.923Z,98496.53
2023-11-12T23:14:13.456Z,98495.47
2023-11-12T23:16:39.983Z,98493.00
2023-11-12T23:19:08.558Z,98496.22
2023-11-12T23:21:35.082Z,98493.75
2023-11-12T23:24:01.706Z,98492.38
2023-11-12T23:26:28.207Z,98495.06
2023-11-12T23:28:54.778Z,98492.38
2023-11-12T23:31:21.424Z,98493.41
2023-11-12T23:33:47.950Z,98488.03
2023-11-12T23:36:16.143Z,98487.25
2023-11-12T23:38:42.636Z,98480.00
2023-11-12T23:41:09.135Z,98476.72
2023-11-12T23:43:35.763Z,98474.53
2023-11-12T23:46:02.544Z,98468.88
2023-11-12T23:48:29.189Z,98453.78
2023-11-12T23:50:55.829Z,98450.03
2023-11-12T23:53:23.706Z,98427.97
2023-11-12T23:55:50.303Z,98422.84
2023-11-12T23:58:16.889Z,98416.38
